This is the latest recevied weather packets stored in our database for station/object DL9BGG-13. If no packets are shown the sender has not sent any weather packets the latest 1 day(s).
| Time | Temp. | Humidity | Pressure | Rain* | Wind** | Luminosity | Snow |
|---|---|---|---|---|---|---|---|
| 1778015028 | 10° C | 85% | 1056.1 hPa | 0 mm | 2.68 m/s, 45° | - | - |
| 1778014955 | 10° C | 85% | 1056.1 hPa | 0 mm | 4.47 m/s, 45° | - | - |
| 1778014889 | 10° C | 85% | 1056 hPa | 0 mm | 2.68 m/s, 22° | - | - |
| 1778014808 | 10° C | 85% | 1056 hPa | 0 mm | 2.24 m/s, 22° | - | - |
| 1778014727 | 10° C | 85% | 1056.1 hPa | 0 mm | 1.34 m/s, 0° | - | - |
| 1778014649 | 10° C | 85% | 1056.1 hPa | 0 mm | 0 m/s | - | - |
| 1778014582 | 10° C | 85% | 1056.1 hPa | 0 mm | 1.34 m/s, 22° | - | - |
| 1778014509 | 10° C | 85% | 1056.1 hPa | 0 mm | 5.36 m/s, 67° | - | - |
| 1778014443 | 10° C | 85% | 1056.1 hPa | 0 mm | 2.24 m/s, 45° | - | - |
| 1778014370 | 10° C | 85% | 1056.1 hPa | 0 mm | 3.13 m/s, 45° | - | - |
| 1778014304 | 10° C | 85% | 1056.1 hPa | 0 mm | 3.13 m/s, 45° | - | - |
| 1778014224 | 10° C | 85% | 1056.1 hPa | 0 mm | 0.89 m/s, 22° | - | - |
| 1778014151 | 10° C | 85% | 1056 hPa | 0 mm | 5.81 m/s, 45° | - | - |
| 1778014086 | 10° C | 85% | 1056.1 hPa | 0 mm | 3.13 m/s, 22° | - | - |
| 1778014013 | 10° C | 85% | 1056 hPa | 0 mm | 5.81 m/s, 45° | - | - |
| 1778013949 | 10° C | 85% | 1056 hPa | 0 mm | 2.68 m/s, 22° | - | - |
| 1778013882 | 10° C | 85% | 1056.1 hPa | 0 mm | 2.24 m/s, 45° | - | - |
| 1778013809 | 10° C | 85% | 1056 hPa | 0 mm | 3.13 m/s, 22° | - | - |
| 1778013737 | 10° C | 85% | 1056 hPa | 0 mm | 3.13 m/s, 90° | - | - |
| 1778013663 | 10° C | 85% | 1055.9 hPa | 0 mm | 2.68 m/s, 0° | - | - |
| 1778013590 | 10° C | 85% | 1056.1 hPa | 0 mm | 3.13 m/s, 22° | - | - |
| 1778013517 | 10° C | 85% | 1056 hPa | 0 mm | 4.47 m/s, 22° | - | - |
| 1778013452 | 10° C | 85% | 1056.1 hPa | 0 mm | 1.79 m/s, 0° | - | - |
| 1778013378 | 10° C | 85% | 1056.1 hPa | 0 mm | 2.24 m/s, 22° | - | - |
| 1778013298 | 10° C | 85% | 1056 hPa | 0 mm | 2.24 m/s, 0° | - | - |
* Rain latest hour (hover to see other rain measurements)
** Current wind speed in m/s (hover to see current wind gust speed)